Time;durP1;ratioP1;P1;durP2;ratioP2;P2;SDS_P1;SDS_P2;PMS_P1;PMS_P2;Temp;Humidity;BMP_temperature;BMP_pressure;BME280_temperature;BME280_humidity;BME280_pressure;Samples;Min_cycle;Max_cycle;Signal;HPM_P1;HPM_P2
2023/03/03 00:00:10;;;;;;;35.20;18.43;;;;;;;;;;5051664;28;20280;-68
2023/03/03 00:02:35;;;;;;;39.40;19.63;;;;;;;;;;5047429;28;20898;-75
2023/03/03 00:05:00;;;;;;;34.40;19.40;;;;;;;;;;5051776;28;20546;-74
2023/03/03 00:07:26;;;;;;;35.75;19.58;;;;;;;;;;5049453;28;20776;-75
2023/03/03 00:09:51;;;;;;;36.40;19.67;;;;;;;;;;5054942;28;20070;-75
2023/03/03 00:12:20;;;;;;;37.30;19.50;;;;;;;;;;5051252;28;20264;-76
2023/03/03 00:14:45;;;;;;;32.53;19.52;;;;;;;;;;5051011;28;20090;-75
2023/03/03 00:17:17;;;;;;;32.55;18.92;;;;;;;;;;5050968;28;20029;-67
2023/03/03 00:19:46;;;;;;;35.45;18.70;;;;;;;;;;5051290;28;20031;-74
2023/03/03 00:22:14;;;;;;;34.13;18.70;;;;;;;;;;5051078;28;20396;-74
2023/03/03 00:24:40;;;;;;;32.70;19.57;;;;;;;;;;5045332;28;20095;-74
2023/03/03 00:27:28;;;;;;;31.70;19.83;;;;;;;;;;5049911;28;20029;-76
2023/03/03 00:29:54;;;;;;;34.67;18.60;;;;;;;;;;5051237;28;20268;-75
2023/03/03 00:32:21;;;;;;;37.00;21.23;;;;;;;;;;5051166;28;20167;-76
2023/03/03 00:34:47;;;;;;;33.60;19.25;;;;;;;;;;5050941;28;20025;-69
2023/03/03 00:37:24;;;;;;;30.60;18.25;;;;;;;;;;5046319;28;20087;-70
2023/03/03 00:39:49;;;;;;;36.28;19.50;;;;;;;;;;5042310;28;20037;-75
2023/03/03 00:42:16;;;;;;;37.88;21.10;;;;;;;;;;5058082;28;20029;-75
2023/03/03 00:44:47;;;;;;;35.67;19.17;;;;;;;;;;5047620;28;20029;-75
2023/03/03 00:47:12;;;;;;;41.70;21.73;;;;;;;;;;5045958;28;20056;-75
2023/03/03 00:49:38;;;;;;;34.83;19.37;;;;;;;;;;5039908;28;20065;-74
2023/03/03 00:52:09;;;;;;;36.00;19.50;;;;;;;;;;5049592;28;20382;-74
2023/03/03 00:54:34;;;;;;;37.95;20.95;;;;;;;;;;5048370;28;20029;-70
2023/03/03 00:56:59;;;;;;;32.63;19.13;;;;;;;;;;5042135;28;20106;-75
2023/03/03 00:59:25;;;;;;;36.67;19.58;;;;;;;;;;5047581;28;20484;-75
2023/03/03 01:01:50;;;;;;;38.03;20.80;;;;;;;;;;5050089;28;20092;-77
2023/03/03 01:04:15;;;;;;;36.72;21.08;;;;;;;;;;5050648;28;20990;-75
2023/03/03 01:06:40;;;;;;;34.35;20.25;;;;;;;;;;5050327;28;20033;-75
2023/03/03 01:09:06;;;;;;;36.47;19.43;;;;;;;;;;5050198;28;20031;-75
2023/03/03 01:11:31;;;;;;;38.22;19.65;;;;;;;;;;5050270;28;20266;-66
2023/03/03 01:13:56;;;;;;;36.65;20.63;;;;;;;;;;5053897;28;20033;-72
2023/03/03 01:16:21;;;;;;;40.17;21.98;;;;;;;;;;5050003;28;20029;-77
2023/03/03 01:18:47;;;;;;;37.70;21.13;;;;;;;;;;5050273;28;20444;-77
2023/03/03 01:21:12;;;;;;;36.65;21.38;;;;;;;;;;5031558;28;20264;-78
2023/03/03 01:23:37;;;;;;;35.78;20.33;;;;;;;;;;5049235;28;20025;-77
2023/03/03 01:26:03;;;;;;;35.47;21.20;;;;;;;;;;5050030;28;20075;-78
2023/03/03 01:28:28;;;;;;;39.67;20.23;;;;;;;;;;5050306;28;20029;-76
2023/03/03 01:30:53;;;;;;;34.13;19.53;;;;;;;;;;5046075;28;20047;-67
2023/03/03 01:33:19;;;;;;;38.22;19.85;;;;;;;;;;5049390;28;20288;-70
2023/03/03 01:35:47;;;;;;;39.92;19.88;;;;;;;;;;5047572;28;20028;-71
2023/03/03 01:38:13;;;;;;;37.58;22.00;;;;;;;;;;5048440;28;20056;-70
2023/03/03 01:40:38;;;;;;;34.08;19.63;;;;;;;;;;5048693;28;20072;-71
2023/03/03 01:43:04;;;;;;;39.13;20.98;;;;;;;;;;5048579;28;20025;-71
2023/03/03 01:45:47;;;;;;;34.83;21.02;;;;;;;;;;5054440;28;20033;-71
2023/03/03 01:48:14;;;;;;;37.97;19.35;;;;;;;;;;5031142;28;20078;-66
2023/03/03 01:50:55;;;;;;;34.45;20.25;;;;;;;;;;5041298;28;20032;-67
2023/03/03 01:53:32;;;;;;;35.80;19.15;;;;;;;;;;5049282;28;20040;-67
2023/03/03 01:55:58;;;;;;;34.83;18.58;;;;;;;;;;5049539;28;20107;-68
2023/03/03 01:58:35;;;;;;;34.97;19.75;;;;;;;;;;5049483;28;20109;-68
2023/03/03 02:01:02;;;;;;;38.90;20.77;;;;;;;;;;5047630;28;20094;-66
2023/03/03 02:03:28;;;;;;;35.85;19.35;;;;;;;;;;5040708;28;20036;-67
2023/03/03 02:05:55;;;;;;;40.00;21.10;;;;;;;;;;5048560;28;20118;-69
2023/03/03 02:08:23;;;;;;;35.58;18.95;;;;;;;;;;5049560;28;20025;-75
2023/03/03 02:10:49;;;;;;;39.80;20.25;;;;;;;;;;5041736;28;20039;-76
2023/03/03 02:13:14;;;;;;;34.53;20.35;;;;;;;;;;5047558;28;20128;-79
2023/03/03 02:15:39;;;;;;;30.75;19.30;;;;;;;;;;5049126;28;20372;-76
2023/03/03 02:18:08;;;;;;;30.15;17.08;;;;;;;;;;5054938;28;20032;-75
2023/03/03 02:20:45;;;;;;;35.42;21.17;;;;;;;;;;5039276;28;20066;-76
2023/03/03 02:23:13;;;;;;;37.72;19.63;;;;;;;;;;5048363;28;20028;-74
2023/03/03 02:25:56;;;;;;;37.75;20.65;;;;;;;;;;5048388;28;20060;-74
2023/03/03 02:28:22;;;;;;;29.30;17.10;;;;;;;;;;5048556;28;20032;-71
2023/03/03 02:30:48;;;;;;;38.08;21.60;;;;;;;;;;5030181;28;20432;-71
2023/03/03 02:33:13;;;;;;;38.85;20.95;;;;;;;;;;5045246;28;20063;-71
2023/03/03 02:35:39;;;;;;;34.75;19.98;;;;;;;;;;5043200;28;20372;-72
2023/03/03 02:38:14;;;;;;;38.83;20.98;;;;;;;;;;5022297;28;20078;-72
2023/03/03 02:40:43;;;;;;;34.22;17.88;;;;;;;;;;5048631;28;20044;-71
2023/03/03 02:43:09;;;;;;;31.80;19.52;;;;;;;;;;5049209;28;20700;-68
2023/03/03 02:45:40;;;;;;;38.50;21.08;;;;;;;;;;5048472;28;20058;-68
2023/03/03 02:48:05;;;;;;;37.58;18.85;;;;;;;;;;5050409;28;20343;-76
2023/03/03 02:50:30;;;;;;;41.97;23.03;;;;;;;;;;5051983;28;20029;-79
2023/03/03 02:52:55;;;;;;;35.40;20.13;;;;;;;;;;5042978;28;20036;-77
2023/03/03 02:55:21;;;;;;;36.73;20.30;;;;;;;;;;5048821;28;20271;-77
2023/03/03 02:57:46;;;;;;;37.57;20.13;;;;;;;;;;5048369;28;20608;-78
2023/03/03 03:00:11;;;;;;;40.30;19.97;;;;;;;;;;5042532;28;20264;-75
2023/03/03 03:02:36;;;;;;;37.53;21.73;;;;;;;;;;5032318;28;20283;-72
2023/03/03 03:05:02;;;;;;;33.90;19.87;;;;;;;;;;5052591;28;20114;-72
2023/03/03 03:07:27;;;;;;;33.67;18.60;;;;;;;;;;5050938;28;20372;-72
2023/03/03 03:09:53;;;;;;;36.90;19.90;;;;;;;;;;5045168;28;20417;-72
2023/03/03 03:12:20;;;;;;;32.20;18.85;;;;;;;;;;5050984;28;20271;-72
2023/03/03 03:14:45;;;;;;;36.60;20.00;;;;;;;;;;5051349;28;20120;-72
2023/03/03 03:17:11;;;;;;;37.10;20.27;;;;;;;;;;5051615;28;20113;-70
2023/03/03 03:19:36;;;;;;;41.25;21.08;;;;;;;;;;5050847;28;20325;-67
2023/03/03 03:22:02;;;;;;;33.93;20.57;;;;;;;;;;5059106;28;20116;-78
2023/03/03 03:24:27;;;;;;;38.90;21.83;;;;;;;;;;5052309;28;20360;-68
2023/03/03 03:26:52;;;;;;;32.40;17.67;;;;;;;;;;5049134;28;20025;-68
2023/03/03 03:29:17;;;;;;;36.97;20.70;;;;;;;;;;5047149;28;20733;-71
2023/03/03 03:31:43;;;;;;;38.83;21.53;;;;;;;;;;5052156;28;20298;-69
2023/03/03 03:34:08;;;;;;;33.53;20.08;;;;;;;;;;5044018;28;20287;-68
2023/03/03 03:36:33;;;;;;;37.63;20.13;;;;;;;;;;5051736;28;20028;-70
2023/03/03 03:39:01;;;;;;;34.47;21.20;;;;;;;;;;5052138;28;20457;-68
2023/03/03 03:41:26;;;;;;;36.95;23.40;;;;;;;;;;5052060;28;20363;-77
2023/03/03 03:43:52;;;;;;;33.63;20.55;;;;;;;;;;5044233;28;20459;-79
2023/03/03 03:46:17;;;;;;;35.03;19.67;;;;;;;;;;5051891;28;20036;-77
2023/03/03 03:48:42;;;;;;;38.20;20.97;;;;;;;;;;5049159;28;20278;-76
2023/03/03 03:51:09;;;;;;;34.40;20.02;;;;;;;;;;5042208;28;20271;-78
2023/03/03 03:53:34;;;;;;;39.50;21.45;;;;;;;;;;5056393;28;20044;-77
2023/03/03 03:55:59;;;;;;;38.05;20.65;;;;;;;;;;5051071;28;20489;-76
2023/03/03 03:58:25;;;;;;;37.40;19.77;;;;;;;;;;5051661;28;20028;-76
2023/03/03 04:00:50;;;;;;;35.85;19.95;;;;;;;;;;5049038;28;20334;-76
2023/03/03 04:03:15;;;;;;;35.37;20.50;;;;;;;;;;5044224;28;20112;-77
2023/03/03 04:05:40;;;;;;;37.80;20.87;;;;;;;;;;5050342;28;20310;-78
2023/03/03 04:08:06;;;;;;;32.60;18.23;;;;;;;;;;5046074;28;20303;-77
2023/03/03 04:10:31;;;;;;;39.03;20.85;;;;;;;;;;5043470;28;20111;-76
2023/03/03 04:12:57;;;;;;;34.47;20.63;;;;;;;;;;5051297;28;20058;-77
2023/03/03 04:15:22;;;;;;;34.35;20.92;;;;;;;;;;5050607;28;20780;-77
2023/03/03 04:17:47;;;;;;;37.53;21.48;;;;;;;;;;5043870;28;20029;-75
2023/03/03 04:20:14;;;;;;;34.43;21.17;;;;;;;;;;5049252;28;20048;-71
2023/03/03 04:22:39;;;;;;;35.95;19.73;;;;;;;;;;5050625;28;20374;-72
2023/03/03 04:25:05;;;;;;;40.15;21.90;;;;;;;;;;5054671;28;20051;-71
2023/03/03 04:27:34;;;;;;;33.95;21.02;;;;;;;;;;5053323;28;20048;-74
2023/03/03 04:29:59;;;;;;;36.03;19.67;;;;;;;;;;5050959;28;20025;-71
2023/03/03 04:32:24;;;;;;;32.08;18.90;;;;;;;;;;5051244;28;20365;-70
2023/03/03 04:34:50;;;;;;;35.70;20.13;;;;;;;;;;5038920;28;20400;-71
2023/03/03 04:37:15;;;;;;;35.37;20.60;;;;;;;;;;5050257;28;20749;-76
2023/03/03 04:39:40;;;;;;;38.33;21.85;;;;;;;;;;5050807;28;20286;-74
2023/03/03 04:42:05;;;;;;;36.55;19.70;;;;;;;;;;5050726;28;20116;-76
2023/03/03 04:44:31;;;;;;;40.05;21.25;;;;;;;;;;5050829;28;20102;-74
2023/03/03 04:46:56;;;;;;;35.53;19.53;;;;;;;;;;5047378;28;20021;-75
2023/03/03 04:49:21;;;;;;;37.57;21.43;;;;;;;;;;5044087;28;20451;-76
2023/03/03 04:51:46;;;;;;;36.63;19.73;;;;;;;;;;5048375;28;20275;-71
2023/03/03 04:54:12;;;;;;;32.67;19.80;;;;;;;;;;5050420;28;20298;-69
2023/03/03 04:56:38;;;;;;;35.72;21.00;;;;;;;;;;5055059;28;20080;-71
2023/03/03 04:59:03;;;;;;;37.93;20.80;;;;;;;;;;5046472;28;20024;-71
2023/03/03 05:01:28;;;;;;;38.72;20.65;;;;;;;;;;5050445;28;20279;-72
2023/03/03 05:03:54;;;;;;;42.80;22.03;;;;;;;;;;5050761;28;20041;-71
2023/03/03 05:06:19;;;;;;;37.17;20.67;;;;;;;;;;5048226;28;20288;-72
2023/03/03 05:08:44;;;;;;;36.55;20.75;;;;;;;;;;5050545;28;20037;-71
2023/03/03 05:11:10;;;;;;;39.22;22.63;;;;;;;;;;5050513;28;21195;-76
2023/03/03 05:13:35;;;;;;;36.05;21.15;;;;;;;;;;5049671;28;20128;-75
2023/03/03 05:16:00;;;;;;;35.20;20.50;;;;;;;;;;5049217;28;20515;-75
2023/03/03 05:18:26;;;;;;;36.80;20.03;;;;;;;;;;5049525;28;20268;-75
2023/03/03 05:20:51;;;;;;;43.28;21.25;;;;;;;;;;5050170;28;20263;-75
2023/03/03 05:23:17;;;;;;;40.65;21.88;;;;;;;;;;5044996;28;20029;-74
2023/03/03 05:25:43;;;;;;;37.17;21.13;;;;;;;;;;5041049;28;20166;-76
2023/03/03 05:28:09;;;;;;;35.92;20.17;;;;;;;;;;5051289;28;20064;-75
2023/03/03 05:30:34;;;;;;;39.03;20.95;;;;;;;;;;5055347;28;20455;-66
2023/03/03 05:33:00;;;;;;;38.85;21.17;;;;;;;;;;5050150;28;20029;-69
2023/03/03 05:35:25;;;;;;;36.33;20.52;;;;;;;;;;5050111;28;20079;-69
2023/03/03 05:37:51;;;;;;;39.93;20.80;;;;;;;;;;5049791;28;20083;-69
2023/03/03 05:40:17;;;;;;;38.85;24.10;;;;;;;;;;5037484;28;20287;-69
2023/03/03 05:42:42;;;;;;;43.70;22.48;;;;;;;;;;5049671;28;20095;-68
2023/03/03 05:45:07;;;;;;;36.72;21.58;;;;;;;;;;5049782;28;20029;-69
2023/03/03 05:47:33;;;;;;;38.78;20.88;;;;;;;;;;5049729;28;20357;-77
2023/03/03 05:49:59;;;;;;;35.50;20.08;;;;;;;;;;5049976;28;20123;-72
2023/03/03 05:52:24;;;;;;;38.22;22.00;;;;;;;;;;5048979;28;20029;-76
2023/03/03 05:54:49;;;;;;;34.60;19.90;;;;;;;;;;5030494;28;20476;-77
2023/03/03 05:57:15;;;;;;;41.87;21.07;;;;;;;;;;5038999;28;20270;-77
2023/03/03 05:59:40;;;;;;;38.40;22.48;;;;;;;;;;5050325;28;20792;-76
2023/03/03 06:02:05;;;;;;;38.40;21.98;;;;;;;;;;5056361;28;20036;-77
2023/03/03 06:04:31;;;;;;;36.67;22.10;;;;;;;;;;5046792;28;20032;-78
2023/03/03 06:06:56;;;;;;;36.97;20.43;;;;;;;;;;5044992;28;20752;-74
2023/03/03 06:09:21;;;;;;;39.13;21.80;;;;;;;;;;5049140;28;20769;-69
2023/03/03 06:11:46;;;;;;;36.30;21.30;;;;;;;;;;5046371;28;20664;-69
2023/03/03 06:14:11;;;;;;;40.60;22.45;;;;;;;;;;5038751;28;20930;-67
2023/03/03 06:16:37;;;;;;;38.63;21.93;;;;;;;;;;5046217;28;20032;-69
2023/03/03 06:19:02;;;;;;;36.95;22.15;;;;;;;;;;5045035;28;20270;-68
2023/03/03 06:21:27;;;;;;;37.27;21.83;;;;;;;;;;5045909;28;20116;-70
2023/03/03 06:23:52;;;;;;;37.45;22.55;;;;;;;;;;5048203;28;20295;-71
2023/03/03 06:26:17;;;;;;;39.77;22.10;;;;;;;;;;5048167;28;20464;-70
2023/03/03 06:28:43;;;;;;;45.07;23.27;;;;;;;;;;5038760;28;20272;-74
2023/03/03 06:31:08;;;;;;;42.07;22.77;;;;;;;;;;5045547;28;20283;-74
2023/03/03 06:33:33;;;;;;;42.28;22.65;;;;;;;;;;5056344;28;20291;-74
2023/03/03 06:35:58;;;;;;;35.03;19.90;;;;;;;;;;5048630;28;20036;-75
2023/03/03 06:38:24;;;;;;;38.42;21.20;;;;;;;;;;5039873;28;20378;-74
2023/03/03 06:40:49;;;;;;;43.47;22.07;;;;;;;;;;5048387;28;20525;-75
2023/03/03 06:43:14;;;;;;;41.40;20.88;;;;;;;;;;5048548;28;20280;-77
2023/03/03 06:45:39;;;;;;;38.22;22.38;;;;;;;;;;5041621;28;20584;-75
2023/03/03 06:48:05;;;;;;;40.20;20.92;;;;;;;;;;5042080;28;20032;-75
2023/03/03 06:50:30;;;;;;;37.78;20.70;;;;;;;;;;5040567;28;20017;-73
2023/03/03 06:53:07;;;;;;;36.75;20.95;;;;;;;;;;5043263;28;20028;-74
2023/03/03 06:55:32;;;;;;;36.97;21.55;;;;;;;;;;5046473;28;20052;-73
2023/03/03 06:57:58;;;;;;;40.28;21.65;;;;;;;;;;5047035;28;20032;-73
2023/03/03 07:00:24;;;;;;;37.65;22.10;;;;;;;;;;5045847;28;20501;-65
2023/03/03 07:02:55;;;;;;;43.78;23.60;;;;;;;;;;5043540;28;20463;-70
2023/03/03 07:05:22;;;;;;;41.28;22.70;;;;;;;;;;5051530;28;20032;-66
2023/03/03 07:07:47;;;;;;;42.08;21.65;;;;;;;;;;5045404;28;20040;-67
2023/03/03 07:10:31;;;;;;;34.93;20.93;;;;;;;;;;5045098;28;20500;-70
2023/03/03 07:13:00;;;;;;;40.65;20.60;;;;;;;;;;5046335;28;20654;-68
2023/03/03 07:15:32;;;;;;;41.53;21.42;;;;;;;;;;5046354;28;20037;-70
2023/03/03 07:17:58;;;;;;;34.55;20.35;;;;;;;;;;5039317;28;20070;-69
2023/03/03 07:20:27;;;;;;;34.33;18.63;;;;;;;;;;5043499;28;20033;-70
2023/03/03 07:22:52;;;;;;;36.73;20.93;;;;;;;;;;5040197;28;20033;-78
2023/03/03 07:25:19;;;;;;;38.17;21.10;;;;;;;;;;5027378;28;20283;-77
2023/03/03 07:27:44;;;;;;;42.28;21.15;;;;;;;;;;5045203;28;20279;-76
2023/03/03 07:30:36;;;;;;;33.80;19.88;;;;;;;;;;5044997;28;20028;-71
2023/03/03 07:33:01;;;;;;;36.35;19.25;;;;;;;;;;5037734;28;20037;-74
2023/03/03 07:35:39;;;;;;;36.65;20.80;;;;;;;;;;5046807;28;20107;-75
2023/03/03 07:38:16;;;;;;;37.05;20.15;;;;;;;;;;5051721;28;20036;-66
2023/03/03 07:40:46;;;;;;;35.05;20.50;;;;;;;;;;5051664;28;20119;-66
2023/03/03 07:43:28;;;;;;;36.90;20.45;;;;;;;;;;5045044;28;20502;-66
2023/03/03 07:45:56;;;;;;;37.63;18.88;;;;;;;;;;5043675;28;20033;-69
2023/03/03 07:48:29;;;;;;;35.40;19.75;;;;;;;;;;5044858;28;20021;-66
2023/03/03 07:50:55;;;;;;;35.78;18.85;;;;;;;;;;5048354;28;20074;-66
2023/03/03 07:53:25;;;;;;;37.38;20.30;;;;;;;;;;5048298;28;20028;-68
2023/03/03 07:55:50;;;;;;;32.00;18.40;;;;;;;;;;5046837;28;20025;-69
2023/03/03 07:58:34;;;;;;;38.10;19.10;;;;;;;;;;5055558;28;20491;-66
2023/03/03 08:01:18;;;;;;;36.25;20.52;;;;;;;;;;5029633;28;20036;-72
2023/03/03 08:03:45;;;;;;;36.72;19.35;;;;;;;;;;5047074;28;20071;-74
2023/03/03 08:06:29;;;;;;;37.58;19.85;;;;;;;;;;5049140;28;20162;-70
2023/03/03 08:08:58;;;;;;;34.38;19.70;;;;;;;;;;5055633;28;20029;-71
2023/03/03 08:11:24;;;;;;;37.78;22.58;;;;;;;;;;5030666;28;20029;-73
2023/03/03 08:13:49;;;;;;;32.40;18.52;;;;;;;;;;5050093;28;20029;-70
2023/03/03 08:16:14;;;;;;;37.27;22.40;;;;;;;;;;5051409;28;20025;-73
2023/03/03 08:18:46;;;;;;;37.00;20.33;;;;;;;;;;5039317;28;20295;-71
2023/03/03 08:21:12;;;;;;;36.80;21.40;;;;;;;;;;5050316;28;20369;-72
2023/03/03 08:23:37;;;;;;;38.47;19.67;;;;;;;;;;5055415;28;20123;-72
2023/03/03 08:26:02;;;;;;;33.45;19.77;;;;;;;;;;5050654;28;20384;-72
2023/03/03 08:28:27;;;;;;;35.58;19.98;;;;;;;;;;5049531;28;20025;-70
2023/03/03 08:30:53;;;;;;;36.40;20.27;;;;;;;;;;5047241;28;20044;-72
2023/03/03 08:33:18;;;;;;;40.97;21.85;;;;;;;;;;5046145;28;20127;-65
2023/03/03 08:35:43;;;;;;;35.35;21.83;;;;;;;;;;5046202;28;20042;-70
2023/03/03 08:38:09;;;;;;;34.95;20.00;;;;;;;;;;5046399;28;20396;-69
2023/03/03 08:40:35;;;;;;;37.60;20.95;;;;;;;;;;5051160;28;20025;-69
2023/03/03 08:43:00;;;;;;;31.95;18.75;;;;;;;;;;5048154;28;20399;-69
2023/03/03 08:45:26;;;;;;;34.53;21.30;;;;;;;;;;5048386;28;20499;-71
2023/03/03 08:47:51;;;;;;;34.88;19.88;;;;;;;;;;5044532;28;20029;-68
2023/03/03 08:50:16;;;;;;;34.00;21.57;;;;;;;;;;5047360;28;20031;-69
2023/03/03 08:52:41;;;;;;;34.83;20.13;;;;;;;;;;5050295;28;20558;-70
2023/03/03 08:55:07;;;;;;;35.97;22.47;;;;;;;;;;5048130;28;20083;-75
2023/03/03 08:57:32;;;;;;;35.72;20.98;;;;;;;;;;5048352;28;20366;-73
2023/03/03 08:59:57;;;;;;;37.23;20.07;;;;;;;;;;5046787;28;20357;-75
2023/03/03 09:02:22;;;;;;;32.50;20.17;;;;;;;;;;5048792;28;21086;-77
2023/03/03 09:04:48;;;;;;;30.40;20.10;;;;;;;;;;5048718;28;20294;-79
2023/03/03 09:07:13;;;;;;;36.83;19.80;;;;;;;;;;5047250;28;20158;-77
2023/03/03 09:09:38;;;;;;;30.93;19.57;;;;;;;;;;5030058;28;20082;-70
2023/03/03 09:12:13;;;;;;;31.95;19.02;;;;;;;;;;5050891;28;20021;-82
2023/03/03 09:14:38;;;;;;;31.55;18.02;;;;;;;;;;5050359;28;20033;-79
2023/03/03 09:17:16;;;;;;;32.67;21.97;;;;;;;;;;5046270;28;20036;-79
2023/03/03 09:19:42;;;;;;;28.73;17.90;;;;;;;;;;5046783;28;20292;-74
2023/03/03 09:22:17;;;;;;;34.25;19.48;;;;;;;;;;5046119;28;20480;-74
2023/03/03 09:24:43;;;;;;;28.77;18.17;;;;;;;;;;5047900;28;20115;-76
2023/03/03 09:27:15;;;;;;;27.30;18.15;;;;;;;;;;5047308;28;20198;-72
2023/03/03 09:29:40;;;;;;;32.97;19.73;;;;;;;;;;5047558;28;20185;-70
2023/03/03 09:32:24;;;;;;;33.50;19.37;;;;;;;;;;5047176;28;20032;-69
2023/03/03 09:34:50;;;;;;;28.48;17.77;;;;;;;;;;5044758;28;20041;-70
2023/03/03 09:37:25;;;;;;;30.33;18.25;;;;;;;;;;5045441;28;20048;-71
2023/03/03 09:39:51;;;;;;;26.40;16.35;;;;;;;;;;5044943;28;20025;-71
2023/03/03 09:42:35;;;;;;;30.48;18.52;;;;;;;;;;5047854;28;20037;-71
2023/03/03 09:45:00;;;;;;;29.05;18.38;;;;;;;;;;5055063;28;20250;-71
2023/03/03 09:47:32;;;;;;;29.03;18.63;;;;;;;;;;5046836;28;20017;-69
2023/03/03 09:49:57;;;;;;;32.65;18.15;;;;;;;;;;5043833;28;20047;-72
2023/03/03 09:52:41;;;;;;;28.40;18.93;;;;;;;;;;5047915;28;20079;-80
2023/03/03 09:55:18;;;;;;;31.70;18.75;;;;;;;;;;5041238;28;20291;-76
2023/03/03 09:57:55;;;;;;;28.85;17.33;;;;;;;;;;5046939;28;20065;-77
2023/03/03 10:00:39;;;;;;;30.35;17.52;;;;;;;;;;5042644;28;20027;-77
2023/03/03 10:03:22;;;;;;;31.42;19.42;;;;;;;;;;5045546;28;20033;-72
2023/03/03 10:05:51;;;;;;;28.52;16.70;;;;;;;;;;5037513;28;20203;-69
2023/03/03 10:08:19;;;;;;;24.30;17.40;;;;;;;;;;5048404;28;20025;-67
2023/03/03 10:10:52;;;;;;;30.88;20.23;;;;;;;;;;5045197;28;20039;-70
2023/03/03 10:13:24;;;;;;;30.05;17.50;;;;;;;;;;5044382;28;20024;-70
2023/03/03 10:16:02;;;;;;;34.60;18.50;;;;;;;;;;5049915;28;20033;-70
2023/03/03 10:18:48;;;;;;;30.30;17.75;;;;;;;;;;5048690;28;20087;-67
2023/03/03 10:21:37;;;;;;;29.38;16.65;;;;;;;;;;5042560;28;20025;-69
2023/03/03 10:24:22;;;;;;;30.80;19.00;;;;;;;;;;5010634;28;20045;-67
2023/03/03 10:27:03;;;;;;;32.22;19.13;;;;;;;;;;5048385;28;20036;-67
2023/03/03 10:29:44;;;;;;;30.75;19.52;;;;;;;;;;5046932;28;20036;-67
2023/03/03 10:32:30;;;;;;;32.13;18.92;;;;;;;;;;5024258;28;20112;-68
2023/03/03 10:35:06;;;;;;;29.30;18.80;;;;;;;;;;5047581;28;20045;-67
2023/03/03 10:37:44;;;;;;;30.75;19.70;;;;;;;;;;5042414;28;20033;-68
2023/03/03 10:40:12;;;;;;;29.20;17.88;;;;;;;;;;5047569;28;20049;-66
2023/03/03 10:42:37;;;;;;;29.90;18.63;;;;;;;;;;5048944;28;20029;-68
2023/03/03 10:45:21;;;;;;;31.97;19.47;;;;;;;;;;5047955;28;20033;-73
2023/03/03 10:47:58;;;;;;;30.45;19.23;;;;;;;;;;5051691;28;20005;-70
2023/03/03 10:50:32;;;;;;;29.42;20.83;;;;;;;;;;5052175;28;20020;-69
2023/03/03 10:53:18;;;;;;;32.92;19.70;;;;;;;;;;5047879;28;20100;-63
2023/03/03 10:56:02;;;;;;;26.77;17.27;;;;;;;;;;5046472;28;20151;-67
2023/03/03 10:58:41;;;;;;;36.97;18.85;;;;;;;;;;5045748;28;20037;-64
2023/03/03 11:01:19;;;;;;;31.40;20.52;;;;;;;;;;5030679;28;20507;-68
2023/03/03 11:04:03;;;;;;;30.35;18.63;;;;;;;;;;5045952;28;20029;-66
2023/03/03 11:06:36;;;;;;;28.30;17.52;;;;;;;;;;5046123;28;20108;-67
2023/03/03 11:09:10;;;;;;;36.78;20.27;;;;;;;;;;5047594;28;20170;-67
2023/03/03 11:11:41;;;;;;;31.67;19.17;;;;;;;;;;5040721;28;20040;-67
2023/03/03 11:14:15;;;;;;;29.13;19.20;;;;;;;;;;5034859;28;20081;-68
2023/03/03 11:16:47;;;;;;;30.13;18.90;;;;;;;;;;5035352;28;20515;-67
2023/03/03 11:19:15;;;;;;;28.17;18.85;;;;;;;;;;5038632;28;20041;-67
2023/03/03 11:21:46;;;;;;;32.63;18.67;;;;;;;;;;5038881;28;20037;-67
2023/03/03 11:24:14;;;;;;;31.05;20.35;;;;;;;;;;5031904;28;20052;-67
2023/03/03 11:26:48;;;;;;;32.03;19.48;;;;;;;;;;5048330;28;20560;-67
2023/03/03 11:29:19;;;;;;;35.75;19.33;;;;;;;;;;5045934;28;20645;-68
2023/03/03 11:31:45;;;;;;;32.53;20.55;;;;;;;;;;5048290;28;20592;-69
2023/03/03 11:34:22;;;;;;;26.00;18.43;;;;;;;;;;5049554;28;20028;-67
2023/03/03 11:36:55;;;;;;;33.20;19.90;;;;;;;;;;5049905;28;20050;-78
2023/03/03 11:39:26;;;;;;;29.88;19.38;;;;;;;;;;5047977;28;20029;-66
2023/03/03 11:42:10;;;;;;;29.35;19.20;;;;;;;;;;5047837;28;20112;-67
2023/03/03 11:44:38;;;;;;;34.50;20.83;;;;;;;;;;5048486;28;20639;-68
2023/03/03 11:47:03;;;;;;;31.88;20.90;;;;;;;;;;5044844;28;20016;-69
2023/03/03 11:49:38;;;;;;;32.85;19.80;;;;;;;;;;5049766;28;20716;-67
2023/03/03 11:52:06;;;;;;;29.65;19.88;;;;;;;;;;5055684;28;20075;-67
2023/03/03 11:54:36;;;;;;;29.95;20.17;;;;;;;;;;5045790;28;20113;-67
2023/03/03 11:57:13;;;;;;;31.40;19.73;;;;;;;;;;5048426;28;20055;-67
2023/03/03 11:59:48;;;;;;;30.13;18.95;;;;;;;;;;5046348;28;20033;-69
2023/03/03 12:02:42;;;;;;;32.40;19.45;;;;;;;;;;5026493;28;20033;-65
2023/03/03 12:05:12;;;;;;;31.08;19.05;;;;;;;;;;5033440;28;20052;-67
2023/03/03 12:07:37;;;;;;;;;;;;;;;;;;5046824;28;20031;-68
2023/03/03 12:10:22;;;;;;;29.00;19.30;;;;;;;;;;5046008;28;20015;-67
2023/03/03 12:13:00;;;;;;;32.65;21.65;;;;;;;;;;5046364;28;20037;-67
2023/03/03 12:15:31;;;;;;;27.92;18.10;;;;;;;;;;5048003;28;20744;-66
2023/03/03 12:17:56;;;;;;;30.83;20.92;;;;;;;;;;5044397;28;21515;-68
2023/03/03 12:20:30;;;;;;;28.87;17.80;;;;;;;;;;5044262;28;20024;-68
2023/03/03 12:23:18;;;;;;;28.20;18.08;;;;;;;;;;5042698;28;20037;-66
2023/03/03 12:25:45;;;;;;;31.40;19.08;;;;;;;;;;5042921;28;20179;-67
2023/03/03 12:28:13;;;;;;;30.00;19.05;;;;;;;;;;5041273;28;20029;-66
2023/03/03 12:30:41;;;;;;;27.65;17.55;;;;;;;;;;5047088;28;20025;-68
2023/03/03 12:33:06;;;;;;;27.67;17.48;;;;;;;;;;5044629;28;20021;-69
2023/03/03 12:35:38;;;;;;;31.77;17.57;;;;;;;;;;5038942;28;20025;-65
2023/03/03 12:38:16;;;;;;;26.40;17.05;;;;;;;;;;5048138;28;20287;-68
2023/03/03 12:40:45;;;;;;;29.10;20.48;;;;;;;;;;5046901;28;20041;-65
2023/03/03 12:43:20;;;;;;;28.02;18.58;;;;;;;;;;5047744;28;20542;-69
2023/03/03 12:46:04;;;;;;;26.63;19.20;;;;;;;;;;5037065;28;20029;-66
2023/03/03 12:48:39;;;;;;;30.70;19.15;;;;;;;;;;5042039;28;20053;-68
2023/03/03 12:51:05;;;;;;;26.65;16.70;;;;;;;;;;5026534;28;20022;-68
2023/03/03 12:53:57;;;;;;;31.67;18.95;;;;;;;;;;5046015;28;20040;-74
2023/03/03 12:56:33;;;;;;;26.65;17.98;;;;;;;;;;5050346;28;20630;-72
2023/03/03 12:59:02;;;;;;;27.77;18.65;;;;;;;;;;5049078;28;20032;-73
2023/03/03 13:01:46;;;;;;;28.35;18.33;;;;;;;;;;5045435;28;20322;-74
2023/03/03 13:04:27;;;;;;;27.80;17.92;;;;;;;;;;5045875;28;20087;-72
2023/03/03 13:06:53;;;;;;;27.48;18.50;;;;;;;;;;5047045;28;20033;-77
2023/03/03 13:09:31;;;;;;;29.30;17.17;;;;;;;;;;5047757;28;20090;-66
2023/03/03 13:12:09;;;;;;;27.17;17.67;;;;;;;;;;5047373;28;20043;-77
2023/03/03 13:14:52;;;;;;;26.60;16.73;;;;;;;;;;5042532;28;20511;-79
2023/03/03 13:17:18;;;;;;;28.02;17.63;;;;;;;;;;5050586;28;20029;-80
2023/03/03 13:19:47;;;;;;;30.42;18.98;;;;;;;;;;5049207;28;20117;-79
2023/03/03 13:22:16;;;;;;;27.58;19.08;;;;;;;;;;5048383;28;20025;-80
2023/03/03 13:24:58;;;;;;;33.45;18.30;;;;;;;;;;5047759;28;20032;-83
2023/03/03 13:27:25;;;;;;;29.38;18.20;;;;;;;;;;5039574;28;20081;-66
2023/03/03 13:29:59;;;;;;;31.67;17.25;;;;;;;;;;5052507;28;20064;-68
2023/03/03 13:32:30;;;;;;;27.50;17.10;;;;;;;;;;5043989;28;20716;-71
2023/03/03 13:35:02;;;;;;;28.50;17.23;;;;;;;;;;5045183;28;20037;-68
2023/03/03 13:37:34;;;;;;;25.05;15.82;;;;;;;;;;5043324;28;20029;-70
2023/03/03 13:40:08;;;;;;;30.58;19.08;;;;;;;;;;5040380;28;20056;-70
2023/03/03 13:42:39;;;;;;;28.25;18.30;;;;;;;;;;5044086;28;20036;-70
2023/03/03 13:45:30;;;;;;;26.50;17.13;;;;;;;;;;5027282;28;20025;-69
2023/03/03 13:48:02;;;;;;;26.40;16.80;;;;;;;;;;5018920;28;20044;-67
2023/03/03 13:50:38;;;;;;;28.88;16.67;;;;;;;;;;5045069;28;20468;-67
2023/03/03 13:53:22;;;;;;;34.22;18.55;;;;;;;;;;5041809;28;20364;-66
2023/03/03 13:56:27;;;;;;;28.77;18.48;;;;;;;;;;5041093;28;20048;-68
2023/03/03 13:59:09;;;;;;;31.10;17.80;;;;;;;;;;4981570;28;20061;-67
2023/03/03 14:01:50;;;;;;;30.10;17.35;;;;;;;;;;4992590;28;20031;-68
2023/03/03 14:04:21;;;;;;;26.00;16.30;;;;;;;;;;5026257;28;20044;-70
2023/03/03 14:06:51;;;;;;;34.85;18.10;;;;;;;;;;5026509;28;20033;-69
2023/03/03 14:09:25;;;;;;;27.00;17.33;;;;;;;;;;5043571;28;20057;-82
2023/03/03 14:11:58;;;;;;;28.02;17.48;;;;;;;;;;5047030;28;20075;-81
2023/03/03 14:14:41;;;;;;;28.67;17.20;;;;;;;;;;5045163;28;20094;-81
2023/03/03 14:17:20;;;;;;;31.08;18.63;;;;;;;;;;5045372;28;20052;-80
2023/03/03 14:19:47;;;;;;;28.15;18.80;;;;;;;;;;5045626;28;20031;-79
2023/03/03 14:22:15;;;;;;;28.70;17.25;;;;;;;;;;5044848;28;20147;-74
2023/03/03 14:25:01;;;;;;;31.98;18.23;;;;;;;;;;5043713;28;20087;-80
2023/03/03 14:27:32;;;;;;;29.42;18.60;;;;;;;;;;5041854;28;20041;-67
2023/03/03 14:29:57;;;;;;;27.10;18.02;;;;;;;;;;5046785;28;20040;-66
2023/03/03 14:32:24;;;;;;;30.33;19.23;;;;;;;;;;5052060;28;20025;-67